Time;durP1;ratioP1;P1;durP2;ratioP2;P2;SDS_P1;SDS_P2;PMS_P1;PMS_P2;Temp;Humidity;BMP_temperature;BMP_pressure;BME280_temperature;BME280_humidity;BME280_pressure;Samples;Min_cycle;Max_cycle;Signal;HPM_P1;HPM_P2
2023/08/28 00:00:34;;;;;;;4.05;3.65;;;;;;;21.15;91.79;94446.56;5102973;28;20023;-90
2023/08/28 00:03:00;;;;;;;4.22;3.85;;;;;;;20.98;92.53;94433.44;5117600;27;20118;-87
2023/08/28 00:05:29;;;;;;;4.13;3.60;;;;;;;21.27;91.48;94436.66;5103073;28;20042;-89
2023/08/28 00:07:54;;;;;;;5.65;3.85;;;;;;;21.23;91.10;94438.19;5103722;28;20031;-88
2023/08/28 00:10:19;;;;;;;5.80;4.10;;;;;;;21.10;92.52;94433.31;5103155;28;20026;-88
2023/08/28 00:12:45;;;;;;;6.38;4.10;;;;;;;21.01;93.80;94435.56;5103988;28;20630;-87
2023/08/28 00:15:11;;;;;;;5.95;4.38;;;;;;;20.92;95.72;94432.59;5108118;27;20775;-87
2023/08/28 00:17:36;;;;;;;5.90;3.85;;;;;;;20.82;96.00;94439.59;5112469;27;20475;-86
2023/08/28 00:20:03;;;;;;;5.88;4.20;;;;;;;20.70;95.81;94434.47;5102736;28;20027;-88
2023/08/28 00:22:29;;;;;;;7.82;4.07;;;;;;;20.58;95.81;94441.66;5102769;28;20027;-88
2023/08/28 00:24:54;;;;;;;5.38;3.83;;;;;;;20.65;96.71;94446.75;5116491;28;20027;-91
2023/08/28 00:27:19;;;;;;;4.57;4.18;;;;;;;20.58;99.15;94431.13;5123526;28;20528;-87
2023/08/28 00:29:45;;;;;;;5.45;3.78;;;;;;;20.79;95.68;94434.81;5114802;28;20030;-89
2023/08/28 00:32:11;;;;;;;6.53;4.40;;;;;;;20.75;94.64;94436.34;5103112;28;20432;-89
2023/08/28 00:34:36;;;;;;;4.72;4.00;;;;;;;20.63;95.02;94428.56;5108033;28;20028;-87
2023/08/28 00:37:02;;;;;;;6.18;4.05;;;;;;;20.61;95.45;94428.03;5106834;28;20510;-89
2023/08/28 00:39:28;;;;;;;5.05;3.92;;;;;;;20.54;95.42;94429.25;5105997;28;20497;-86
2023/08/28 00:41:53;;;;;;;5.55;3.95;;;;;;;20.31;97.73;94431.09;5105759;28;20027;-87
2023/08/28 00:44:18;;;;;;;7.10;3.92;;;;;;;20.25;99.29;94429.41;5105924;28;20023;-89
2023/08/28 00:46:44;;;;;;;4.55;4.13;;;;;;;20.21;100.00;94430.91;5107643;28;20680;-88
2023/08/28 00:49:10;;;;;;;4.78;4.18;;;;;;;20.18;100.00;94423.50;5106452;28;20551;-89
2023/08/28 00:51:35;;;;;;;4.38;3.97;;;;;;;20.25;100.00;94425.97;5090517;28;20031;-90
2023/08/28 00:54:03;;;;;;;8.35;4.10;;;;;;;20.14;100.00;94430.28;5089479;28;20124;-89
2023/08/28 00:56:28;;;;;;;6.38;4.43;;;;;;;20.19;100.00;94433.00;5089637;28;20030;-88
2023/08/28 00:58:54;;;;;;;5.47;4.22;;;;;;;20.02;100.00;94431.41;5088921;28;20028;-89
2023/08/28 01:01:19;;;;;;;4.82;4.43;;;;;;;20.10;100.00;94429.16;5106627;28;20404;-89
2023/08/28 01:03:45;;;;;;;5.43;4.75;;;;;;;20.10;100.00;94431.78;5117763;27;20031;-88
2023/08/28 01:06:32;;;;;;;5.35;4.07;;;;;;;19.74;100.00;94425.25;5111197;27;20039;-89
2023/08/28 01:09:00;;;;;;;4.82;4.28;;;;;;;19.86;100.00;94439.09;5107661;28;20082;-88
2023/08/28 01:11:47;;;;;;;6.10;4.22;;;;;;;19.65;100.00;94431.16;5106261;28;20026;-89
2023/08/28 01:14:25;;;;;;;6.55;4.43;;;;;;;19.84;100.00;94435.13;5107020;28;20031;-89
2023/08/28 01:16:51;;;;;;;7.82;4.65;;;;;;;19.61;100.00;94430.03;5089244;28;20227;-87
2023/08/28 01:19:25;;;;;;;8.73;5.07;;;;;;;19.72;100.00;94427.31;5088443;28;20416;-89
2023/08/28 01:21:53;;;;;;;5.18;4.63;;;;;;;19.54;100.00;94429.38;5107577;28;20043;-87
2023/08/28 01:24:21;;;;;;;5.37;4.87;;;;;;;19.36;100.00;94431.16;5095143;27;20019;-89
2023/08/28 01:26:46;;;;;;;5.07;4.60;;;;;;;19.18;100.00;94420.09;5109617;27;20039;-90
2023/08/28 01:29:12;;;;;;;6.57;4.72;;;;;;;18.87;100.00;94424.00;5123009;27;20494;-91
2023/08/28 01:31:37;;;;;;;6.40;4.45;;;;;;;19.10;100.00;94423.91;5107270;28;20024;-91
2023/08/28 01:34:03;;;;;;;6.13;4.63;;;;;;;19.14;100.00;94418.97;5107194;28;20534;-89
2023/08/28 01:36:33;;;;;;;4.70;4.30;;;;;;;18.94;100.00;94424.66;5105612;28;20708;-86
2023/08/28 01:39:06;;;;;;;6.13;4.90;;;;;;;19.00;100.00;94428.97;5102611;27;20110;-87
2023/08/28 01:41:32;;;;;;;6.32;4.88;;;;;;;18.88;100.00;94421.13;5095180;27;20080;-85
2023/08/28 01:44:01;;;;;;;5.53;4.60;;;;;;;18.76;100.00;94424.84;5094132;27;20561;-93
2023/08/28 01:46:28;;;;;;;5.60;4.97;;;;;;;18.64;100.00;94424.88;5121230;27;20027;-93
2023/08/28 01:48:54;;;;;;;5.78;5.13;;;;;;;18.60;100.00;94426.38;5089008;28;20481;-91
2023/08/28 01:51:20;;;;;;;7.40;5.45;;;;;;;18.47;100.00;94423.19;5094407;27;20032;-91
2023/08/28 01:53:46;;;;;;;8.50;5.82;;;;;;;18.28;100.00;94410.22;5127147;27;20030;-91
2023/08/28 01:56:12;;;;;;;5.97;5.50;;;;;;;18.53;100.00;94420.47;5091993;28;20171;-89
2023/08/28 01:58:46;;;;;;;5.50;5.00;;;;;;;17.79;100.00;94427.25;5088187;28;20118;-95
2023/08/28 02:01:12;;;;;;;6.95;5.57;;;;;;;18.39;100.00;94422.53;5106032;27;20043;-95
2023/08/28 02:03:38;;;;;;;5.32;4.93;;;;;;;18.33;100.00;94418.19;5127895;27;20061;-92
2023/08/28 02:06:05;;;;;;;5.72;5.20;;;;;;;17.94;100.00;94423.38;5112720;27;20826;-95
2023/08/28 02:08:30;;;;;;;6.43;5.55;;;;;;;18.18;100.00;94423.13;5107823;28;20038;-94
2023/08/28 02:10:55;;;;;;;6.68;5.35;;;;;;;18.19;100.00;94427.34;5106364;28;20560;-91
2023/08/28 02:13:21;;;;;;;7.95;6.03;;;;;;;18.02;100.00;94420.41;5121825;27;20413;-96
2023/08/28 02:15:47;;;;;;;6.38;5.75;;;;;;;17.87;100.00;94426.13;5115304;27;20491;-90
2023/08/28 02:18:12;;;;;;;8.27;6.00;;;;;;;17.87;100.00;94432.16;5110039;27;20020;-88
2023/08/28 02:20:37;;;;;;;6.22;5.72;;;;;;;17.80;100.00;94423.63;5105502;28;20038;-92
2023/08/28 02:23:03;;;;;;;6.75;6.07;;;;;;;17.61;100.00;94432.59;5105513;28;20889;-89
2023/08/28 02:25:28;;;;;;;6.95;6.25;;;;;;;17.60;100.00;94431.00;5105376;28;20036;-91
2023/08/28 02:27:54;;;;;;;8.57;6.00;;;;;;;17.56;100.00;94435.13;5105860;28;20026;-93
2023/08/28 02:30:19;;;;;;;6.07;5.43;;;;;;;17.59;100.00;94428.63;5115158;27;20030;-90
2023/08/28 02:32:45;;;;;;;6.43;5.22;;;;;;;17.53;100.00;94426.88;5110751;27;20027;-91
2023/08/28 02:35:14;;;;;;;6.68;5.63;;;;;;;17.61;100.00;94429.19;5096181;28;20065;-90
2023/08/28 02:37:39;;;;;;;6.80;6.20;;;;;;;17.59;100.00;94428.63;5110025;27;20605;-94
2023/08/28 02:40:05;;;;;;;6.53;5.75;;;;;;;17.76;100.00;94432.16;5116696;27;20036;-92
2023/08/28 02:42:31;;;;;;;7.70;5.78;;;;;;;17.42;100.00;94431.06;5106179;28;20020;-93
2023/08/28 02:44:56;;;;;;;6.82;5.82;;;;;;;17.76;100.00;94424.28;5114927;27;20552;-93
2023/08/28 02:47:22;;;;;;;8.82;6.18;;;;;;;17.61;100.00;94416.09;5127159;27;20035;-91
2023/08/28 02:49:47;;;;;;;7.38;5.43;;;;;;;17.30;100.00;94423.22;5120148;27;20030;-93
2023/08/28 02:52:13;;;;;;;8.57;5.78;;;;;;;17.44;100.00;94418.53;5106376;28;20412;-92
2023/08/28 02:54:38;;;;;;;6.55;5.95;;;;;;;17.44;100.00;94420.34;5102895;28;20027;-90
2023/08/28 02:57:04;;;;;;;5.50;5.15;;;;;;;17.51;100.00;94410.59;5087103;28;20089;-88
2023/08/28 02:59:30;;;;;;;6.63;5.93;;;;;;;17.50;100.00;94401.94;5105191;28;20036;-92
2023/08/28 03:01:55;;;;;;;7.03;5.70;;;;;;;17.62;100.00;94397.53;5106557;28;20106;-93
2023/08/28 03:04:21;;;;;;;7.32;5.78;;;;;;;17.48;100.00;94403.19;5105567;28;20526;-89
2023/08/28 03:06:46;;;;;;;7.32;6.18;;;;;;;17.34;100.00;94399.97;5111243;27;20122;-88
2023/08/28 03:09:14;;;;;;;7.72;6.30;;;;;;;17.17;100.00;94399.06;5111395;27;20641;-90
2023/08/28 03:11:40;;;;;;;7.00;6.35;;;;;;;16.96;100.00;94404.78;5104680;28;20468;-91
2023/08/28 03:14:05;;;;;;;12.13;6.35;;;;;;;16.78;100.00;94414.31;5106001;28;20035;-90
2023/08/28 03:16:31;;;;;;;6.22;5.72;;;;;;;16.80;100.00;94408.81;5105465;28;20460;-93
2023/08/28 03:18:56;;;;;;;6.53;5.90;;;;;;;16.93;100.00;94403.41;5106429;28;20031;-93
2023/08/28 03:21:22;;;;;;;6.10;5.60;;;;;;;17.10;100.00;94404.38;5105306;28;20020;-94
2023/08/28 03:23:47;;;;;;;7.32;6.47;;;;;;;17.01;100.00;94397.06;5105104;28;20026;-91
2023/08/28 03:26:13;;;;;;;9.15;6.40;;;;;;;17.13;100.00;94396.09;5105060;28;20071;-91
2023/08/28 03:28:38;;;;;;;8.63;6.90;;;;;;;17.10;100.00;94401.75;5118779;27;20033;-94
2023/08/28 03:31:03;;;;;;;6.57;5.82;;;;;;;16.91;100.00;94408.09;5107965;28;20028;-96
2023/08/28 03:33:29;;;;;;;8.25;5.53;;;;;;;16.91;100.00;94413.31;5089145;28;20099;-95
2023/08/28 03:35:54;;;;;;;8.27;6.28;;;;;;;16.69;100.00;94415.63;5087194;28;20034;-90
2023/08/28 03:38:20;;;;;;;6.53;5.97;;;;;;;16.51;100.00;94430.50;5103047;28;20544;-90
2023/08/28 03:40:46;;;;;;;6.90;6.30;;;;;;;16.53;100.00;94434.50;5103758;28;20055;-94
2023/08/28 03:43:12;;;;;;;7.82;6.10;;;;;;;16.53;100.00;94436.31;5112434;27;20031;-90
2023/08/28 03:45:38;;;;;;;7.38;6.78;;;;;;;16.56;100.00;94443.75;5092111;28;20027;-92
2023/08/28 03:48:04;;;;;;;6.70;6.13;;;;;;;16.55;100.00;94447.38;5104841;28;20476;-93
2023/08/28 03:50:30;;;;;;;10.13;6.82;;;;;;;16.66;100.00;94442.19;5103568;28;20098;-91
2023/08/28 03:52:59;;;;;;;10.70;6.78;;;;;;;16.81;100.00;94426.94;5086226;28;20023;-89
2023/08/28 03:55:27;;;;;;;7.18;6.57;;;;;;;16.97;100.00;94428.13;5103184;28;20049;-90
2023/08/28 03:57:53;;;;;;;6.55;5.97;;;;;;;16.95;100.00;94421.53;5103359;28;20062;-90
2023/08/28 04:00:19;;;;;;;6.78;6.10;;;;;;;17.12;100.00;94418.03;5111936;27;20023;-90
2023/08/28 04:02:46;;;;;;;8.50;6.55;;;;;;;17.12;100.00;94425.88;5122728;27;20027;-89
2023/08/28 04:05:12;;;;;;;7.22;6.03;;;;;;;17.02;100.00;94409.13;5085351;28;20034;-89
2023/08/28 04:07:37;;;;;;;6.63;6.03;;;;;;;16.89;100.00;94409.34;5084390;28;20023;-91
2023/08/28 04:10:03;;;;;;;6.70;6.18;;;;;;;16.86;100.00;94415.78;5105822;27;20119;-91
2023/08/28 04:12:28;;;;;;;9.15;5.85;;;;;;;16.66;100.00;94415.28;5120332;27;20388;-90
2023/08/28 04:14:54;;;;;;;6.25;5.75;;;;;;;16.87;100.00;94420.00;5103873;28;20088;-90
2023/08/28 04:17:19;;;;;;;6.50;6.00;;;;;;;16.82;100.00;94419.88;5109678;27;20488;-92
2023/08/28 04:19:45;;;;;;;7.80;5.95;;;;;;;16.98;100.00;94421.88;5105281;28;20463;-90
2023/08/28 04:22:11;;;;;;;6.97;6.40;;;;;;;17.08;100.00;94419.50;5107858;28;20019;-90
2023/08/28 04:24:36;;;;;;;6.47;5.53;;;;;;;17.11;100.00;94408.59;5115996;28;20027;-90
2023/08/28 04:27:02;;;;;;;6.60;6.00;;;;;;;17.34;100.00;94403.38;5105376;28;20102;-89
2023/08/28 04:29:29;;;;;;;14.40;5.93;;;;;;;17.42;100.00;94397.03;5081058;28;20508;-89
2023/08/28 04:31:54;;;;;;;11.13;6.20;;;;;;;17.53;100.00;94398.09;5102016;28;20031;-89
2023/08/28 04:34:19;;;;;;;9.73;6.10;;;;;;;17.99;100.00;94390.22;5102041;28;20031;-86
2023/08/28 04:36:45;;;;;;;7.18;5.55;;;;;;;19.60;100.00;94381.94;5102011;28;20104;-86
2023/08/28 04:39:11;;;;;;;5.55;5.00;;;;;;;21.42;100.00;94368.25;5101559;28;20453;-87
2023/08/28 04:41:36;;;;;;;10.68;4.63;;;;;;;22.55;92.23;94372.91;5102246;28;20481;-87
2023/08/28 04:44:01;;;;;;;5.80;4.30;;;;;;;23.30;86.55;94374.16;5103093;28;20030;-87
2023/08/28 04:46:28;;;;;;;8.20;4.25;;;;;;;24.65;78.47;94382.97;5121227;28;20084;-85
2023/08/28 04:48:53;;;;;;;4.38;3.80;;;;;;;25.05;75.49;94373.22;5108616;28;20041;-86
2023/08/28 04:51:19;;;;;;;4.70;3.83;;;;;;;25.53;72.36;94364.41;5101345;28;20030;-88
2023/08/28 04:53:44;;;;;;;3.65;3.35;;;;;;;26.60;68.45;94364.94;5102665;28;20529;-88
2023/08/28 04:56:10;;;;;;;9.27;3.70;;;;;;;27.34;64.81;94363.41;5112435;28;20464;-85
2023/08/28 04:58:35;;;;;;;4.75;3.70;;;;;;;27.80;62.99;94373.38;5103403;28;20109;-87
2023/08/28 05:01:01;;;;;;;5.63;3.45;;;;;;;27.47;66.29;94364.59;5103438;28;20016;-87
2023/08/28 05:03:26;;;;;;;3.83;3.53;;;;;;;27.65;66.84;94371.72;5107591;28;20024;-88
2023/08/28 05:05:52;;;;;;;5.00;4.50;;;;;;;28.15;65.12;94373.56;5103958;28;20294;-87
2023/08/28 05:08:17;;;;;;;4.63;3.65;;;;;;;28.50;65.77;94376.63;5107545;28;20288;-86
2023/08/28 05:10:43;;;;;;;5.40;3.25;;;;;;;28.35;63.84;94375.06;5095907;28;20035;-88
2023/08/28 05:13:08;;;;;;;4.88;3.45;;;;;;;27.95;65.18;94376.56;5117296;28;20485;-87
2023/08/28 05:15:34;;;;;;;4.50;3.72;;;;;;;28.86;61.50;94379.41;5104076;28;20121;-87
2023/08/28 05:18:00;;;;;;;6.80;3.67;;;;;;;28.38;61.16;94379.81;5085145;28;20485;-88
2023/08/28 05:20:25;;;;;;;3.75;3.30;;;;;;;28.72;58.78;94374.88;5112861;27;20015;-86
2023/08/28 05:22:51;;;;;;;4.13;3.83;;;;;;;29.35;58.00;94355.38;5126961;27;20062;-87
2023/08/28 05:25:17;;;;;;;4.57;3.33;;;;;;;29.78;55.41;94361.03;5107431;27;20074;-87
2023/08/28 05:27:43;;;;;;;3.97;3.58;;;;;;;29.39;56.06;94366.25;5106846;28;20044;-87
2023/08/28 05:30:09;;;;;;;3.70;3.03;;;;;;;29.26;56.11;94362.53;5110079;27;20023;-87
2023/08/28 05:32:34;;;;;;;4.00;3.70;;;;;;;29.35;55.58;94355.38;5103583;28;20062;-88
2023/08/28 05:35:03;;;;;;;4.55;3.78;;;;;;;30.56;53.42;94351.53;5104901;27;20008;-88
2023/08/28 05:37:30;;;;;;;3.30;3.10;;;;;;;30.86;49.62;94347.97;5107552;27;20031;-85
2023/08/28 05:39:55;;;;;;;5.97;3.75;;;;;;;30.04;49.06;94347.84;5117945;27;20034;-85
2023/08/28 05:42:21;;;;;;;3.55;3.25;;;;;;;31.03;47.26;94353.41;5102923;28;20039;-86
2023/08/28 05:44:46;;;;;;;3.72;3.40;;;;;;;32.94;45.06;94363.41;5106108;27;20036;-88
2023/08/28 05:47:11;;;;;;;5.63;3.60;;;;;;;33.25;44.53;94356.59;5102079;28;20016;-87
2023/08/28 05:49:37;;;;;;;4.70;3.42;;;;;;;33.08;41.54;94363.94;5086697;28;20028;-84
2023/08/28 05:52:04;;;;;;;5.97;3.80;;;;;;;34.33;39.41;94360.81;5103752;28;20034;-85
2023/08/28 05:54:30;;;;;;;3.35;3.00;;;;;;;35.00;37.31;94358.72;5105867;28;20030;-85
2023/08/28 05:56:55;;;;;;;4.65;3.22;;;;;;;35.93;35.89;94355.69;5104293;28;20023;-84
2023/08/28 05:59:20;;;;;;;3.72;3.15;;;;;;;35.81;36.14;94353.81;5105421;28;20398;-86
2023/08/28 06:01:46;;;;;;;5.22;3.22;;;;;;;35.42;35.23;94352.69;5104318;28;20028;-84
2023/08/28 06:04:11;;;;;;;3.60;3.30;;;;;;;34.49;36.57;94354.75;5103692;28;20030;-86
2023/08/28 06:06:38;;;;;;;4.47;3.70;;;;;;;34.06;37.63;94357.94;5086324;28;20031;-83
2023/08/28 06:09:04;;;;;;;3.80;3.50;;;;;;;35.17;35.52;94353.09;5124022;27;20031;-87
2023/08/28 06:11:29;;;;;;;4.30;3.63;;;;;;;36.07;34.40;94349.88;5095083;28;20651;-84
2023/08/28 06:13:55;;;;;;;5.43;4.00;;;;;;;37.10;34.49;94345.88;5103774;28;20016;-87
2023/08/28 06:16:20;;;;;;;4.07;3.67;;;;;;;37.74;33.01;94344.50;5108970;27;20038;-85
2023/08/28 06:18:46;;;;;;;4.53;3.78;;;;;;;36.63;34.05;94342.44;5110590;27;20043;-87
2023/08/28 06:21:11;;;;;;;6.25;3.67;;;;;;;33.88;38.37;94336.59;5112326;27;20030;-88
2023/08/28 06:23:37;;;;;;;4.53;3.70;;;;;;;33.07;39.10;94340.91;5121898;27;20045;-88
2023/08/28 06:26:03;;;;;;;3.38;3.15;;;;;;;31.96;40.46;94344.84;5115979;27;20128;-85
2023/08/28 06:28:29;;;;;;;4.45;3.90;;;;;;;31.98;42.62;94342.66;5110766;27;20111;-87
2023/08/28 06:30:54;;;;;;;4.32;3.50;;;;;;;31.88;40.99;94351.03;5104925;28;20136;-88
2023/08/28 06:33:20;;;;;;;3.80;3.50;;;;;;;31.37;42.63;94349.94;5105723;28;20039;-89
2023/08/28 06:35:46;;;;;;;3.15;2.95;;;;;;;32.05;42.77;94351.78;5108724;27;20058;-88
2023/08/28 06:38:12;;;;;;;6.97;3.20;;;;;;;32.19;42.06;94348.91;5110919;27;20024;-89
2023/08/28 06:40:37;;;;;;;5.38;3.55;;;;;;;34.93;36.77;94348.53;5108788;27;20073;-89
2023/08/28 06:43:03;;;;;;;6.10;3.25;;;;;;;37.20;34.71;94349.94;5105039;28;20040;-88
2023/08/28 06:45:29;;;;;;;2.95;2.75;;;;;;;37.80;32.62;94351.19;5104232;27;20043;-87
2023/08/28 06:47:57;;;;;;;3.03;2.80;;;;;;;37.44;32.09;94353.16;5103508;28;20044;-89
2023/08/28 06:50:22;;;;;;;3.33;3.00;;;;;;;38.84;31.03;94349.97;5101009;28;20423;-87
2023/08/28 06:52:48;;;;;;;;;;;;;;;38.00;30.73;94341.94;5101580;28;20480;-88
2023/08/28 06:55:13;;;;;;;4.18;2.80;;;;;;;39.11;30.47;94334.50;5102296;28;20348;-89
2023/08/28 06:57:39;;;;;;;2.97;2.65;;;;;;;40.20;29.63;94340.53;5101028;28;20081;-89
2023/08/28 07:00:06;;;;;;;2.90;2.70;;;;;;;38.57;29.36;94349.13;5102964;28;20434;-89
2023/08/28 07:02:31;;;;;;;2.97;2.70;;;;;;;38.71;29.61;94346.66;5116009;27;20067;-87
2023/08/28 07:04:57;;;;;;;4.03;2.90;;;;;;;40.95;28.25;94343.53;5122456;27;20431;-89
2023/08/28 07:07:22;;;;;;;3.30;3.00;;;;;;;40.87;27.54;94346.53;5110505;27;20484;-90
2023/08/28 07:09:47;;;;;;;;;;;;;;;40.47;28.12;94348.13;5119809;27;20019;-91
2023/08/28 07:12:13;;;;;;;3.10;2.80;;;;;;;39.69;28.37;94343.81;5112819;27;20438;-87
2023/08/28 07:14:38;;;;;;;3.40;2.90;;;;;;;39.34;29.34;94341.41;5100599;28;20063;-88
2023/08/28 07:17:04;;;;;;;2.80;2.60;;;;;;;39.94;28.27;94342.19;5109726;27;20031;-91
2023/08/28 07:19:29;;;;;;;3.20;2.90;;;;;;;39.64;28.91;94330.56;5107306;27;20063;-87
2023/08/28 07:21:55;;;;;;;3.00;2.80;;;;;;;40.52;27.40;94336.94;5103299;28;20265;-87
2023/08/28 07:24:21;;;;;;;3.42;2.60;;;;;;;40.81;28.24;94337.19;5119702;27;20030;-90
2023/08/28 07:26:46;;;;;;;2.77;2.57;;;;;;;40.43;28.24;94341.09;5112892;27;20040;-89
2023/08/28 07:29:11;;;;;;;3.88;2.97;;;;;;;40.30;28.91;94329.75;5102633;28;20068;-90
2023/08/28 07:31:37;;;;;;;4.72;3.00;;;;;;;40.38;28.10;94336.81;5112627;27;20031;-90
2023/08/28 07:34:04;;;;;;;4.63;3.10;;;;;;;35.62;33.86;94329.41;5110608;27;20530;-89
2023/08/28 07:36:30;;;;;;;3.42;2.97;;;;;;;35.16;36.17;94327.28;5107971;27;20390;-89
2023/08/28 07:38:55;;;;;;;3.63;3.30;;;;;;;34.30;37.38;94339.16;5106051;27;20028;-87
2023/08/28 07:41:21;;;;;;;3.65;3.08;;;;;;;33.43;38.62;94332.28;5111874;27;20139;-85
2023/08/28 07:43:46;;;;;;;5.18;3.35;;;;;;;33.12;39.44;94338.84;5109884;27;20115;-90
2023/08/28 07:46:12;;;;;;;4.30;3.13;;;;;;;33.37;39.34;94337.06;5105358;28;20126;-88
2023/08/28 07:48:39;;;;;;;3.97;3.58;;;;;;;33.73;40.40;94331.06;5108043;27;20023;-89
2023/08/28 07:51:05;;;;;;;3.72;3.33;;;;;;;33.15;39.99;94329.34;5105633;28;20024;-88
2023/08/28 07:53:30;;;;;;;3.70;3.40;;;;;;;33.34;40.34;94326.97;5111589;27;20019;-87
2023/08/28 07:55:55;;;;;;;3.90;3.50;;;;;;;34.02;38.75;94332.81;5112356;27;20176;-90
2023/08/28 07:58:21;;;;;;;3.90;3.55;;;;;;;33.45;40.36;94332.72;5111958;27;20024;-88
2023/08/28 08:00:46;;;;;;;5.25;3.88;;;;;;;33.18;39.89;94331.34;5109713;27;20469;-90
2023/08/28 08:03:11;;;;;;;5.10;3.95;;;;;;;33.07;39.30;94332.84;5116422;27;20088;-89
2023/08/28 08:05:37;;;;;;;3.97;3.58;;;;;;;33.77;40.90;94323.91;5109032;27;20417;-88
2023/08/28 08:08:03;;;;;;;7.78;3.83;;;;;;;33.94;39.96;94331.78;5106088;27;20027;-85
2023/08/28 08:10:29;;;;;;;5.90;4.00;;;;;;;33.65;41.07;94329.25;5107247;27;20081;-86
2023/08/28 08:12:54;;;;;;;3.70;3.40;;;;;;;33.72;39.40;94324.91;5104691;28;20035;-84
2023/08/28 08:15:20;;;;;;;5.25;3.50;;;;;;;33.84;39.70;94327.63;5088618;27;20023;-87
2023/08/28 08:17:46;;;;;;;4.82;3.55;;;;;;;33.70;39.85;94332.53;5108599;27;20027;-89
2023/08/28 08:20:12;;;;;;;5.00;3.90;;;;;;;33.98;39.54;94326.53;5103749;28;20012;-85
2023/08/28 08:22:38;;;;;;;3.50;3.20;;;;;;;32.96;41.02;94329.75;5111219;28;20035;-87
2023/08/28 08:25:06;;;;;;;3.70;3.35;;;;;;;31.99;41.42;94323.53;5107676;28;20024;-88
2023/08/28 08:27:31;;;;;;;4.68;3.45;;;;;;;33.50;41.97;94316.38;5103046;28;20059;-87
2023/08/28 08:29:56;;;;;;;4.85;3.70;;;;;;;33.71;41.57;94314.50;5102666;28;20421;-85
2023/08/28 08:32:22;;;;;;;6.22;3.85;;;;;;;33.83;39.35;94323.38;5114327;28;20076;-89
2023/08/28 08:34:47;;;;;;;6.55;4.07;;;;;;;34.02;40.85;94317.47;5118448;28;20048;-85
2023/08/28 08:37:14;;;;;;;6.03;3.40;;;;;;;34.06;40.87;94312.22;5109563;28;20020;-89
2023/08/28 08:39:41;;;;;;;8.83;3.80;;;;;;;34.19;40.21;94311.16;5114754;28;20034;-87
2023/08/28 08:42:07;;;;;;;4.40;3.60;;;;;;;33.95;40.13;94306.47;5110464;28;20036;-88
2023/08/28 08:44:33;;;;;;;4.28;3.58;;;;;;;34.06;40.18;94304.16;5085680;28;20020;-89
2023/08/28 08:47:02;;;;;;;8.23;3.80;;;;;;;34.39;40.26;94302.97;5104714;28;20027;-89
2023/08/28 08:49:32;;;;;;;4.90;3.50;;;;;;;34.39;39.92;94299.47;5104172;28;20484;-87
2023/08/28 08:52:00;;;;;;;4.70;3.70;;;;;;;34.19;40.03;94301.19;5102885;28;20118;-88
2023/08/28 08:54:30;;;;;;;3.80;3.42;;;;;;;34.27;40.25;94302.16;5108701;27;20023;-88
2023/08/28 08:57:04;;;;;;;4.95;3.40;;;;;;;34.30;38.98;94293.44;5108165;27;20036;-86
2023/08/28 08:59:30;;;;;;;4.35;3.95;;;;;;;34.36;39.57;94289.38;5094275;27;20053;-86
2023/08/28 09:01:59;;;;;;;5.40;3.60;;;;;;;34.39;39.04;94294.88;5112072;27;20066;-88
2023/08/28 09:04:24;;;;;;;4.20;3.55;;;;;;;34.03;39.16;94286.00;5110592;27;20040;-89
2023/08/28 09:06:50;;;;;;;5.53;2.90;;;;;;;34.29;39.02;94286.50;5117161;27;20019;-86
2023/08/28 09:09:16;;;;;;;4.63;3.67;;;;;;;34.22;38.87;94284.38;5094912;27;20788;-88
2023/08/28 09:11:45;;;;;;;5.28;3.40;;;;;;;34.02;39.71;94290.59;5108369;27;20031;-90
2023/08/28 09:14:11;;;;;;;3.92;3.08;;;;;;;34.58;39.00;94290.88;5102126;27;20027;-89
2023/08/28 09:16:36;;;;;;;4.07;3.17;;;;;;;34.43;38.09;94289.63;5116426;27;20492;-88
2023/08/28 09:19:02;;;;;;;5.05;3.13;;;;;;;34.18;37.88;94288.06;5105941;28;20020;-88
2023/08/28 09:21:34;;;;;;;4.05;3.30;;;;;;;33.96;37.24;94286.53;5109620;27;20031;-84
2023/08/28 09:23:59;;;;;;;6.07;3.45;;;;;;;34.13;37.72;94278.28;5113435;27;20057;-84
2023/08/28 09:26:25;;;;;;;3.50;3.20;;;;;;;34.41;38.02;94283.81;5111794;27;20527;-84
2023/08/28 09:28:59;;;;;;;4.82;3.70;;;;;;;34.36;38.37;94282.09;5104739;28;20098;-87
2023/08/28 09:31:35;;;;;;;8.20;3.85;;;;;;;34.42;37.71;94269.22;5115295;27;20030;-88
2023/08/28 09:34:04;;;;;;;3.88;3.30;;;;;;;34.70;38.03;94270.13;5102737;27;20030;-87
2023/08/28 09:36:37;;;;;;;3.80;3.50;;;;;;;34.35;36.72;94266.31;5104085;28;20480;-84
2023/08/28 09:39:04;;;;;;;5.00;3.25;;;;;;;34.46;37.84;94256.66;5121120;27;20036;-85
2023/08/28 09:41:49;;;;;;;3.70;2.93;;;;;;;34.19;36.75;94257.34;5114563;27;20020;-84
2023/08/28 09:44:21;;;;;;;4.50;3.60;;;;;;;34.59;37.27;94255.50;5102808;27;20012;-85
2023/08/28 09:46:47;;;;;;;5.55;3.47;;;;;;;34.30;37.93;94242.31;5110731;27;20081;-85
2023/08/28 09:49:13;;;;;;;5.43;3.63;;;;;;;34.73;37.60;94239.03;5117539;27;20023;-85
2023/08/28 09:51:49;;;;;;;6.40;3.70;;;;;;;34.22;36.53;94229.78;5092781;28;20058;-84
2023/08/28 09:54:16;;;;;;;4.13;3.72;;;;;;;34.47;37.07;94225.94;5111408;27;20035;-85
2023/08/28 09:56:42;;;;;;;4.85;2.92;;;;;;;34.65;36.26;94227.28;5094125;27;20026;-85
2023/08/28 09:59:10;;;;;;;4.30;3.15;;;;;;;34.19;35.44;94225.84;5126549;27;20096;-89
2023/08/28 10:01:36;;;;;;;3.53;3.22;;;;;;;34.71;35.86;94225.16;5114464;27;20043;-89
2023/08/28 10:04:10;;;;;;;3.50;2.97;;;;;;;34.68;35.55;94226.59;5113203;27;20019;-87
2023/08/28 10:06:38;;;;;;;6.85;3.30;;;;;;;34.57;36.08;94205.84;5110969;27;20031;-91
2023/08/28 10:09:05;;;;;;;3.17;2.97;;;;;;;34.83;36.64;94217.81;5113751;27;20084;-89
2023/08/28 10:11:36;;;;;;;7.38;3.45;;;;;;;34.73;35.00;94210.22;5096140;28;20495;-89
2023/08/28 10:14:03;;;;;;;4.47;2.83;;;;;;;34.60;35.78;94214.06;5087970;28;20468;-90
2023/08/28 10:16:30;;;;;;;5.03;2.70;;;;;;;34.86;35.53;94211.75;5098305;27;20049;-89
2023/08/28 10:19:09;;;;;;;5.55;2.97;;;;;;;34.97;35.99;94205.88;5110281;27;20442;-89
2023/08/28 10:21:35;;;;;;;6.25;2.90;;;;;;;34.62;35.18;94206.41;5115831;27;20030;-89
2023/08/28 10:24:01;;;;;;;2.90;2.55;;;;;;;34.17;34.27;94195.81;5091983;27;20016;-86
2023/08/28 10:26:27;;;;;;;3.47;2.72;;;;;;;34.69;35.02;94198.56;5105372;28;20047;-86
2023/08/28 10:28:52;;;;;;;3.10;2.80;;;;;;;34.48;35.56;94194.44;5105538;28;20030;-88
2023/08/28 10:31:19;;;;;;;4.63;2.65;;;;;;;34.53;34.90;94186.91;5096791;28;20129;-84
2023/08/28 10:33:46;;;;;;;2.92;2.72;;;;;;;34.42;35.51;94185.81;5083201;28;20061;-86
2023/08/28 10:36:13;;;;;;;2.75;2.55;;;;;;;34.67;36.03;94189.25;5084760;28;20036;-90
2023/08/28 10:38:39;;;;;;;4.40;2.13;;;;;;;34.14;33.86;94185.72;5082532;28;20031;-85
2023/08/28 10:41:05;;;;;;;8.40;2.50;;;;;;;34.33;34.69;94180.53;5085594;28;20740;-89
2023/08/28 10:43:32;;;;;;;6.57;2.50;;;;;;;34.55;35.08;94168.50;5091349;28;20015;-93
2023/08/28 10:46:00;;;;;;;4.85;2.08;;;;;;;34.32;35.29;94172.81;5084408;28;20035;-90
2023/08/28 10:48:25;;;;;;;3.50;2.17;;;;;;;34.47;34.93;94166.72;5087014;28;20023;-85
2023/08/28 10:50:57;;;;;;;4.55;1.90;;;;;;;34.63;33.10;94172.22;5090544;28;20475;-87
2023/08/28 10:53:23;;;;;;;2.83;1.60;;;;;;;34.17;32.85;94160.84;5088087;28;20063;-87
2023/08/28 10:55:58;;;;;;;3.85;1.83;;;;;;;33.62;33.33;94166.75;5103122;28;20084;-86
2023/08/28 10:58:24;;;;;;;1.83;1.40;;;;;;;33.92;32.73;94157.34;5088596;28;20031;-88
2023/08/28 11:01:10;;;;;;;2.88;1.60;;;;;;;34.28;32.51;94153.88;5091827;28;20034;-88
2023/08/28 11:04:15;;;;;;;1.60;1.20;;;;;;;33.84;31.85;94149.41;5091362;28;20032;-88
2023/08/28 11:06:45;;;;;;;3.70;1.20;;;;;;;33.87;31.19;94149.53;5044751;28;20051;-87
2023/08/28 11:09:28;;;;;;;2.05;1.45;;;;;;;33.61;31.94;94151.75;5089327;28;20506;-88
2023/08/28 11:11:57;;;;;;;2.55;1.30;;;;;;;34.13;31.90;94151.09;5094932;28;20019;-88
2023/08/28 11:14:22;;;;;;;8.27;1.52;;;;;;;33.86;31.80;94147.94;5093570;28;20395;-85
2023/08/28 11:16:48;;;;;;;2.72;1.30;;;;;;;33.13;32.06;94147.06;5083248;28;20064;-87
2023/08/28 11:19:13;;;;;;;3.22;1.50;;;;;;;33.39;32.08;94138.72;5083941;28;20409;-90
2023/08/28 11:21:40;;;;;;;2.58;1.02;;;;;;;33.75;32.06;94141.44;5072948;27;20515;-88
2023/08/28 11:24:26;;;;;;;1.85;1.33;;;;;;;33.65;31.48;94147.25;5087225;28;20059;-84
2023/08/28 11:26:52;;;;;;;1.30;1.20;;;;;;;33.86;31.47;94122.97;5084061;28;20069;-88
2023/08/28 11:29:27;;;;;;;2.25;1.40;;;;;;;34.22;32.73;94131.03;5082775;28;20533;-83